Time;durP1;ratioP1;P1;durP2;ratioP2;P2;SDS_P1;SDS_P2;PMS_P1;PMS_P2;Temp;Humidity;BMP_temperature;BMP_pressure;BME280_temperature;BME280_humidity;BME280_pressure;Samples;Min_cycle;Max_cycle;Signal;HPM_P1;HPM_P2
2022/06/23 00:01:41;;;;;;;;;;;21.60;77.80;;;;;;5040077;28;19932;-75
2022/06/23 00:04:11;;;;;;;;;;;21.60;77.90;;;;;;5042133;28;19933;-77
2022/06/23 00:06:41;;;;;;;;;;;21.60;77.90;;;;;;5039664;28;19933;-76
2022/06/23 00:09:29;;;;;;;;;;;21.60;78.00;;;;;;5039306;28;20420;-77
2022/06/23 00:11:55;;;;;;;;;;;21.50;78.00;;;;;;5042088;28;19972;-75
2022/06/23 00:14:24;;;;;;;;;;;21.50;78.00;;;;;;5040495;28;19929;-75
2022/06/23 00:16:51;;;;;;;;;;;21.50;78.10;;;;;;5037792;28;19936;-76
2022/06/23 00:19:17;;;;;;;;;;;21.50;78.10;;;;;;5041672;28;19940;-76
2022/06/23 00:21:47;;;;;;;;;;;21.50;78.10;;;;;;5040103;28;19936;-77
2022/06/23 00:24:17;;;;;;;;;;;21.50;78.20;;;;;;5037786;28;19936;-77
2022/06/23 00:26:44;;;;;;;;;;;21.50;78.30;;;;;;5039112;28;20343;-77
2022/06/23 00:29:13;;;;;;;;;;;21.40;78.20;;;;;;5039257;28;20019;-75
2022/06/23 00:31:41;;;;;;;;;;;21.50;78.30;;;;;;5039014;28;20459;-75
2022/06/23 00:34:14;;;;;;;;;;;21.40;78.30;;;;;;5040464;28;19944;-78
2022/06/23 00:36:47;;;;;;;;;;;21.40;78.30;;;;;;5039018;28;19940;-75
2022/06/23 00:39:21;;;;;;;;;;;21.40;78.40;;;;;;5040329;28;20568;-77
2022/06/23 00:41:48;;;;;;;;;;;21.40;78.40;;;;;;5037457;28;20420;-76
2022/06/23 00:44:17;;;;;;;;;;;21.40;78.50;;;;;;5039098;28;19932;-75
2022/06/23 00:46:46;;;;;;;;;;;21.30;78.50;;;;;;5037650;28;19936;-78
2022/06/23 00:49:15;;;;;;;;;;;21.30;78.60;;;;;;5039071;28;19935;-75
2022/06/23 00:51:44;;;;;;;;;;;21.30;78.70;;;;;;5038359;28;19928;-75
2022/06/23 00:54:15;;;;;;;;;;;21.30;78.80;;;;;;5040084;28;20292;-75
2022/06/23 00:56:45;;;;;;;;;;;21.30;78.80;;;;;;5038205;28;20007;-75
2022/06/23 00:59:14;;;;;;;;;;;21.30;78.80;;;;;;5040447;28;19928;-75
2022/06/23 01:01:43;;;;;;;;;;;21.20;78.80;;;;;;5038702;28;19933;-75
2022/06/23 01:04:17;;;;;;;;;;;21.20;78.90;;;;;;5039752;28;20405;-76
2022/06/23 01:06:48;;;;;;;;;;;21.20;79.00;;;;;;5038628;28;19974;-76
2022/06/23 01:09:18;;;;;;;;;;;21.20;79.20;;;;;;5037820;28;19929;-77
2022/06/23 01:11:51;;;;;;;;;;;21.20;79.20;;;;;;5038854;28;19925;-76
2022/06/23 01:14:22;;;;;;;;;;;21.20;79.20;;;;;;5039044;28;19940;-77
2022/06/23 01:16:50;;;;;;;;;;;21.10;79.20;;;;;;5036623;28;20028;-76
2022/06/23 01:19:37;;;;;;;;;;;21.10;79.20;;;;;;5039385;28;19933;-77
2022/06/23 01:22:07;;;;;;;;;;;21.10;79.20;;;;;;5038739;28;20771;-75
2022/06/23 01:24:36;;;;;;;;;;;21.10;79.20;;;;;;5034006;28;21051;-75
2022/06/23 01:27:12;;;;;;;;;;;21.10;79.30;;;;;;5038775;28;19929;-75
2022/06/23 01:29:41;;;;;;;;;;;21.10;79.20;;;;;;5035561;28;20605;-75
2022/06/23 01:32:13;;;;;;;;;;;21.00;79.10;;;;;;5037648;28;19933;-76
2022/06/23 01:34:47;;;;;;;;;;;21.00;79.20;;;;;;5037755;28;20047;-75
2022/06/23 01:37:16;;;;;;;;;;;21.00;79.20;;;;;;5038729;28;19928;-75
2022/06/23 01:39:46;;;;;;;;;;;21.00;79.20;;;;;;5037582;28;19960;-77
2022/06/23 01:42:18;;;;;;;;;;;21.00;79.30;;;;;;5039162;28;19933;-77
2022/06/23 01:44:47;;;;;;;;;;;21.00;79.20;;;;;;5039123;28;19979;-75
2022/06/23 01:47:18;;;;;;;;;;;20.90;79.20;;;;;;5038344;28;20360;-76
2022/06/23 01:49:45;;;;;;;;;;;20.90;79.20;;;;;;5040068;28;19968;-75
2022/06/23 01:52:13;;;;;;;;;;;20.90;79.40;;;;;;5041384;28;19929;-75
2022/06/23 01:54:40;;;;;;;;;;;20.90;79.30;;;;;;5038995;28;19940;-76
2022/06/23 01:57:10;;;;;;;;;;;20.90;79.40;;;;;;5042320;28;19936;-76
2022/06/23 01:59:45;;;;;;;;;;;20.80;79.30;;;;;;5043694;28;19929;-75
2022/06/23 02:02:20;;;;;;;;;;;20.80;79.40;;;;;;5042638;28;19929;-74
2022/06/23 02:04:50;;;;;;;;;;;20.80;79.40;;;;;;5041824;28;20012;-75
2022/06/23 02:07:20;;;;;;;;;;;20.80;79.50;;;;;;5043939;28;20426;-76
2022/06/23 02:09:49;;;;;;;;;;;20.80;79.50;;;;;;5040805;28;19935;-75
2022/06/23 02:12:21;;;;;;;;;;;20.80;79.60;;;;;;5043594;28;19935;-76
2022/06/23 02:14:52;;;;;;;;;;;20.70;79.60;;;;;;5041056;28;21355;-75
2022/06/23 02:17:26;;;;;;;;;;;20.70;79.70;;;;;;5039730;28;19982;-77
2022/06/23 02:19:54;;;;;;;;;;;20.70;79.70;;;;;;5043633;28;19990;-77
2022/06/23 02:22:22;;;;;;;;;;;20.70;79.70;;;;;;5042802;28;19939;-76
2022/06/23 02:24:50;;;;;;;;;;;20.60;79.70;;;;;;5039235;28;19952;-76
2022/06/23 02:27:20;;;;;;;;;;;20.60;79.70;;;;;;5038392;28;19929;-75
2022/06/23 02:29:50;;;;;;;;;;;20.70;79.80;;;;;;5040009;28;19936;-75
2022/06/23 02:32:18;;;;;;;;;;;20.60;79.70;;;;;;5042941;28;20308;-75
2022/06/23 02:34:48;;;;;;;;;;;20.60;79.70;;;;;;5044255;28;20649;-76
2022/06/23 02:37:34;;;;;;;;;;;20.60;79.70;;;;;;5042161;28;19933;-77
2022/06/23 02:40:00;;;;;;;;;;;20.60;79.80;;;;;;5042776;28;19940;-75
2022/06/23 02:42:29;;;;;;;;;;;20.60;79.80;;;;;;5044077;28;20542;-75
2022/06/23 02:45:05;;;;;;;;;;;20.60;80.60;;;;;;5039089;28;19944;-75
2022/06/23 02:47:40;;;;;;;;;;;20.50;79.80;;;;;;5040629;28;19929;-76
2022/06/23 02:50:14;;;;;;;;;;;20.50;79.90;;;;;;5043268;28;19935;-75
2022/06/23 02:53:04;;;;;;;;;;;20.50;79.90;;;;;;5042189;28;19929;-75
2022/06/23 02:55:39;;;;;;;;;;;20.50;79.90;;;;;;5039676;28;19940;-75
2022/06/23 02:58:08;;;;;;;;;;;20.40;79.80;;;;;;5041199;28;20016;-75
2022/06/23 03:00:39;;;;;;;;;;;20.40;79.90;;;;;;5041296;28;20419;-75
2022/06/23 03:03:09;;;;;;;;;;;20.40;79.90;;;;;;5048278;28;19933;-75
2022/06/23 03:05:42;;;;;;;;;;;20.40;79.90;;;;;;5039937;28;19940;-75
2022/06/23 03:08:12;;;;;;;;;;;20.40;79.90;;;;;;5043658;28;20427;-77
2022/06/23 03:10:42;;;;;;;;;;;20.40;80.00;;;;;;5039737;28;19932;-76
2022/06/23 03:13:10;;;;;;;;;;;20.40;80.00;;;;;;5042534;28;19936;-76
2022/06/23 03:15:40;;;;;;;;;;;20.30;80.00;;;;;;5039142;28;19929;-76
2022/06/23 03:18:09;;;;;;;;;;;20.30;80.10;;;;;;5039702;28;19932;-75
2022/06/23 03:20:40;;;;;;;;;;;20.30;80.00;;;;;;5041847;28;19928;-76
2022/06/23 03:23:10;;;;;;;;;;;20.30;80.00;;;;;;5041083;28;19954;-76
2022/06/23 03:25:38;;;;;;;;;;;20.30;80.10;;;;;;5036902;28;19980;-77
2022/06/23 03:28:09;;;;;;;;;;;20.30;80.00;;;;;;5039613;28;19933;-75
2022/06/23 03:30:40;;;;;;;;;;;20.20;80.10;;;;;;5041551;28;19935;-75
2022/06/23 03:33:13;;;;;;;;;;;20.20;80.10;;;;;;5041745;28;20316;-76
2022/06/23 03:35:44;;;;;;;;;;;20.20;80.20;;;;;;5039979;28;19932;-75
2022/06/23 03:38:14;;;;;;;;;;;20.20;80.20;;;;;;5040490;28;19940;-75
2022/06/23 03:43:35;;;;;;;;;;;20.10;80.10;;;;;;5039718;28;19932;-75
2022/06/23 03:46:05;;;;;;;;;;;20.10;80.10;;;;;;5037712;28;20479;-76
2022/06/23 03:48:36;;;;;;;;;;;20.10;80.10;;;;;;5043837;28;21181;-75
2022/06/23 03:51:06;;;;;;;;;;;20.10;80.10;;;;;;5043003;28;20280;-75
2022/06/23 03:53:35;;;;;;;;;;;20.10;80.10;;;;;;5039427;28;19936;-76
2022/06/23 03:56:03;;;;;;;;;;;20.10;80.10;;;;;;5040084;28;19932;-76
2022/06/23 03:58:33;;;;;;;;;;;20.10;80.10;;;;;;5040598;28;19968;-75
2022/06/23 04:01:04;;;;;;;;;;;20.10;80.10;;;;;;5039183;28;20054;-75
2022/06/23 04:03:33;;;;;;;;;;;20.00;80.10;;;;;;5041382;28;20430;-76
2022/06/23 04:06:14;;;;;;;;;;;20.00;80.10;;;;;;5039306;28;19944;-75
2022/06/23 04:08:49;;;;;;;;;;;20.00;80.30;;;;;;5039913;28;20726;-75
2022/06/23 04:14:04;;;;;;;;;;;20.00;80.40;;;;;;5041106;28;20308;-76
2022/06/23 04:16:31;;;;;;;;;;;20.00;80.50;;;;;;5039941;28;19928;-75
2022/06/23 04:18:58;;;;;;;;;;;19.90;80.50;;;;;;5038962;28;19933;-76
2022/06/23 04:21:28;;;;;;;;;;;19.90;80.50;;;;;;5042466;28;19933;-75
2022/06/23 04:23:57;;;;;;;;;;;19.90;80.50;;;;;;5035562;28;20447;-75
2022/06/23 04:26:28;;;;;;;;;;;19.90;80.60;;;;;;5039812;28;19938;-75
2022/06/23 04:28:56;;;;;;;;;;;19.90;81.30;;;;;;5035702;28;20456;-75
2022/06/23 04:31:26;;;;;;;;;;;19.90;80.60;;;;;;5038968;28;19975;-77
2022/06/23 04:33:53;;;;;;;;;;;19.90;80.70;;;;;;5042777;28;19937;-77
2022/06/23 04:36:21;;;;;;;;;;;19.90;80.80;;;;;;5037817;28;20396;-78
2022/06/23 04:38:51;;;;;;;;;;;19.80;80.80;;;;;;5040356;28;19929;-75
2022/06/23 04:41:21;;;;;;;;;;;19.80;80.20;;;;;;5040428;28;19928;-76
2022/06/23 04:43:50;;;;;;;;;;;19.90;80.80;;;;;;5037527;28;19929;-76
2022/06/23 04:46:17;;;;;;;;;;;19.80;80.80;;;;;;5040797;28;20335;-76
2022/06/23 04:48:48;;;;;;;;;;;19.80;80.80;;;;;;5037584;28;20412;-77
2022/06/23 04:51:19;;;;;;;;;;;19.80;80.80;;;;;;5035774;28;19933;-76
2022/06/23 04:53:49;;;;;;;;;;;19.80;80.80;;;;;;5038564;28;19929;-78
2022/06/23 04:56:24;;;;;;;;;;;19.80;80.90;;;;;;5039682;28;19929;-76
2022/06/23 04:58:53;;;;;;;;;;;19.80;80.80;;;;;;5036829;28;19932;-76
2022/06/23 05:01:22;;;;;;;;;;;19.80;80.90;;;;;;5037798;28;20400;-78
2022/06/23 05:03:50;;;;;;;;;;;19.70;80.80;;;;;;5039299;28;20015;-76
2022/06/23 05:06:23;;;;;;;;;;;19.80;80.90;;;;;;5038902;28;20409;-75
2022/06/23 05:08:50;;;;;;;;;;;19.70;80.90;;;;;;5040882;28;19933;-76
2022/06/23 05:11:22;;;;;;;;;;;19.80;81.00;;;;;;5040112;28;19933;-76
2022/06/23 05:13:51;;;;;;;;;;;19.70;81.00;;;;;;5036586;28;19936;-73
2022/06/23 05:16:20;;;;;;;;;;;19.80;81.10;;;;;;5039352;28;19932;-75
2022/06/23 05:18:48;;;;;;;;;;;19.70;81.20;;;;;;5036303;28;19932;-73
2022/06/23 05:21:18;;;;;;;;;;;19.70;81.20;;;;;;5034947;28;19932;-74
2022/06/23 05:23:46;;;;;;;;;;;19.60;81.20;;;;;;5033053;28;19957;-74
2022/06/23 05:26:15;;;;;;;;;;;19.70;81.30;;;;;;5035826;28;19935;-74
2022/06/23 05:28:42;;;;;;;;;;;19.70;81.30;;;;;;5035769;28;19933;-72
2022/06/23 05:31:14;;;;;;;;;;;19.70;81.40;;;;;;5034428;28;19933;-77
2022/06/23 05:33:44;;;;;;;;;;;19.70;81.40;;;;;;5040417;28;20634;-67
2022/06/23 05:36:14;;;;;;;;;;;19.70;81.40;;;;;;5038096;28;19936;-72
2022/06/23 05:38:44;;;;;;;;;;;19.80;82.20;;;;;;5036542;28;19929;-70
2022/06/23 05:41:14;;;;;;;;;;;19.70;80.80;;;;;;5037356;28;19929;-68
2022/06/23 05:43:42;;;;;;;;;;;19.70;81.40;;;;;;5038171;28;20742;-68
2022/06/23 05:46:17;;;;;;;;;;;19.80;81.40;;;;;;5036730;28;20344;-69
2022/06/23 05:48:46;;;;;;;;;;;19.80;81.40;;;;;;5041542;28;19936;-69
2022/06/23 05:51:15;;;;;;;;;;;19.80;80.80;;;;;;5035066;28;19936;-69
2022/06/23 05:53:46;;;;;;;;;;;19.80;81.30;;;;;;5038389;28;19924;-71
2022/06/23 05:56:16;;;;;;;;;;;19.80;81.30;;;;;;5036402;28;19940;-68
2022/06/23 05:58:46;;;;;;;;;;;19.80;81.40;;;;;;5041730;28;19943;-70
2022/06/23 06:01:19;;;;;;;;;;;19.90;81.60;;;;;;5041203;28;19940;-70
2022/06/23 06:03:48;;;;;;;;;;;19.90;81.80;;;;;;5036557;28;19928;-70
2022/06/23 06:06:14;;;;;;;;;;;19.90;81.80;;;;;;5039008;28;19929;-70
2022/06/23 06:11:24;;;;;;;;;;;19.90;81.80;;;;;;5035630;28;20015;-73
2022/06/23 06:13:50;;;;;;;;;;;19.90;81.80;;;;;;5036118;28;20011;-75
2022/06/23 06:16:18;;;;;;;;;;;20.00;81.90;;;;;;5034317;28;19933;-73
2022/06/23 06:18:46;;;;;;;;;;;20.00;81.80;;;;;;5038116;28;19928;-75
2022/06/23 06:21:16;;;;;;;;;;;20.00;81.90;;;;;;5036686;28;19958;-75
2022/06/23 06:23:45;;;;;;;;;;;20.00;82.70;;;;;;5034421;28;20305;-75
2022/06/23 06:26:13;;;;;;;;;;;20.00;81.90;;;;;;5034862;28;19937;-73
2022/06/23 06:28:39;;;;;;;;;;;20.00;81.90;;;;;;5036579;28;19929;-76
2022/06/23 06:31:10;;;;;;;;;;;20.10;82.20;;;;;;5033119;28;19929;-74
2022/06/23 06:33:51;;;;;;;;;;;20.10;82.20;;;;;;5036629;28;19941;-74
2022/06/23 06:36:26;;;;;;;;;;;20.10;82.30;;;;;;5036917;28;19939;-75
2022/06/23 06:38:57;;;;;;;;;;;20.10;82.40;;;;;;5041211;28;19936;-75
2022/06/23 06:41:23;;;;;;;;;;;20.10;82.40;;;;;;5042550;28;20396;-75
2022/06/23 06:43:50;;;;;;;;;;;20.20;82.40;;;;;;5037071;28;19929;-74
2022/06/23 06:46:16;;;;;;;;;;;20.20;82.60;;;;;;5038476;28;19940;-74
2022/06/23 06:48:43;;;;;;;;;;;20.30;82.90;;;;;;5042939;28;20483;-75
2022/06/23 06:51:13;;;;;;;;;;;20.20;82.90;;;;;;5041838;28;20069;-75
2022/06/23 06:53:43;;;;;;;;;;;20.20;82.90;;;;;;5040236;28;19928;-75
2022/06/23 06:56:14;;;;;;;;;;;20.30;83.30;;;;;;5037063;28;20016;-75
2022/06/23 06:58:43;;;;;;;;;;;20.30;82.90;;;;;;5040199;28;19936;-75
2022/06/23 07:01:12;;;;;;;;;;;20.30;82.90;;;;;;5037383;28;19929;-74
2022/06/23 07:03:41;;;;;;;;;;;20.40;83.00;;;;;;5042615;28;19931;-76
2022/06/23 07:06:10;;;;;;;;;;;20.40;83.00;;;;;;5042123;28;19937;-75
2022/06/23 07:08:40;;;;;;;;;;;20.40;83.00;;;;;;5030904;28;20019;-75
2022/06/23 07:11:10;;;;;;;;;;;20.40;83.10;;;;;;5033039;28;19941;-74
2022/06/23 07:13:39;;;;;;;;;;;20.50;83.10;;;;;;5034932;28;19984;-74
2022/06/23 07:16:11;;;;;;;;;;;20.50;83.20;;;;;;5030846;28;20015;-75
2022/06/23 07:18:41;;;;;;;;;;;20.50;83.20;;;;;;5034128;28;19928;-74
2022/06/23 07:21:10;;;;;;;;;;;20.60;83.20;;;;;;5031886;28;19959;-75
2022/06/23 07:23:41;;;;;;;;;;;20.60;83.30;;;;;;5033958;28;20027;-75
2022/06/23 07:26:20;;;;;;;;;;;20.60;83.40;;;;;;5033689;28;19933;-75
2022/06/23 07:28:48;;;;;;;;;;;20.60;83.30;;;;;;5039411;28;19951;-74
2022/06/23 07:31:17;;;;;;;;;;;20.70;83.20;;;;;;5036472;28;19929;-76
2022/06/23 07:33:46;;;;;;;;;;;20.70;83.10;;;;;;5039617;28;20388;-76
2022/06/23 07:36:14;;;;;;;;;;;20.70;82.90;;;;;;5036328;28;19925;-77
2022/06/23 07:38:44;;;;;;;;;;;20.70;82.80;;;;;;5040741;28;19947;-81
2022/06/23 07:41:14;;;;;;;;;;;20.70;82.30;;;;;;5045736;28;19933;-75
2022/06/23 07:43:43;;;;;;;;;;;20.80;82.80;;;;;;5041689;28;19933;-76
2022/06/23 07:46:10;;;;;;;;;;;20.80;82.60;;;;;;5036148;28;19940;-76
2022/06/23 07:48:37;;;;;;;;;;;20.90;82.90;;;;;;5040091;28;19928;-75
2022/06/23 07:51:05;;;;;;;;;;;20.90;82.90;;;;;;5039522;28;19928;-77
2022/06/23 07:53:34;;;;;;;;;;;20.90;83.20;;;;;;5040394;28;20039;-78
2022/06/23 07:56:03;;;;;;;;;;;21.00;83.00;;;;;;5040041;28;19971;-76
2022/06/23 07:58:31;;;;;;;;;;;21.00;83.00;;;;;;5041451;28;19939;-75
2022/06/23 08:00:59;;;;;;;;;;;21.00;82.80;;;;;;5036157;28;19939;-75
2022/06/23 08:03:30;;;;;;;;;;;21.10;83.00;;;;;;5037585;28;19933;-75
2022/06/23 08:05:59;;;;;;;;;;;21.10;82.90;;;;;;5037154;28;19929;-75
2022/06/23 08:08:27;;;;;;;;;;;21.20;83.00;;;;;;5038963;28;19932;-75
2022/06/23 08:13:38;;;;;;;;;;;21.20;82.60;;;;;;5036809;28;19924;-76
2022/06/23 08:18:52;;;;;;;;;;;21.20;82.40;;;;;;5039360;28;19935;-76
2022/06/23 08:21:21;;;;;;;;;;;21.30;82.40;;;;;;5040511;28;19932;-76
2022/06/23 08:23:49;;;;;;;;;;;21.40;82.50;;;;;;5036774;28;19925;-76
2022/06/23 08:26:16;;;;;;;;;;;21.40;82.50;;;;;;5037343;28;19931;-75
2022/06/23 08:28:45;;;;;;;;;;;21.40;82.60;;;;;;5039585;28;20016;-75
2022/06/23 08:31:12;;;;;;;;;;;21.50;82.70;;;;;;5036627;28;19962;-75
2022/06/23 08:33:38;;;;;;;;;;;21.50;82.60;;;;;;5037213;28;20040;-75
2022/06/23 08:36:08;;;;;;;;;;;21.60;82.30;;;;;;5039714;28;19936;-75
2022/06/23 08:38:37;;;;;;;;;;;21.60;82.30;;;;;;5041404;28;19959;-77
2022/06/23 08:41:14;;;;;;;;;;;21.60;82.00;;;;;;5041895;28;19940;-75
2022/06/23 08:43:42;;;;;;;;;;;21.70;82.00;;;;;;5042306;28;19932;-75
2022/06/23 08:46:17;;;;;;;;;;;21.70;82.00;;;;;;5039231;28;20007;-76
2022/06/23 08:48:46;;;;;;;;;;;21.80;81.80;;;;;;5041798;28;20327;-75
2022/06/23 08:51:18;;;;;;;;;;;21.80;81.50;;;;;;5038794;28;19935;-76
2022/06/23 08:53:52;;;;;;;;;;;21.90;81.30;;;;;;5040082;28;19963;-75
2022/06/23 08:56:20;;;;;;;;;;;21.90;81.20;;;;;;5034042;28;20780;-75
2022/06/23 08:58:49;;;;;;;;;;;21.90;81.10;;;;;;5039684;28;19928;-75
2022/06/23 09:01:20;;;;;;;;;;;22.00;80.90;;;;;;5033356;28;19933;-74
2022/06/23 09:03:51;;;;;;;;;;;22.00;80.70;;;;;;5036043;28;19929;-74
2022/06/23 09:06:25;;;;;;;;;;;22.10;80.50;;;;;;5034890;28;20392;-76
2022/06/23 09:08:59;;;;;;;;;;;22.10;80.40;;;;;;5029873;28;19936;-77
2022/06/23 09:11:29;;;;;;;;;;;22.10;80.30;;;;;;5030013;28;19933;-74
2022/06/23 09:14:05;;;;;;;;;;;22.20;80.20;;;;;;5030965;28;19935;-74
2022/06/23 09:16:42;;;;;;;;;;;22.20;80.00;;;;;;5037758;28;19936;-75
2022/06/23 09:19:21;;;;;;;;;;;22.30;79.80;;;;;;5037273;28;19932;-75
2022/06/23 09:22:07;;;;;;;;;;;22.30;79.50;;;;;;5033594;28;19935;-75
2022/06/23 09:24:43;;;;;;;;;;;22.30;79.10;;;;;;5033492;28;19937;-76
2022/06/23 09:27:14;;;;;;;;;;;22.40;79.00;;;;;;5030482;28;19937;-75
2022/06/23 09:29:46;;;;;;;;;;;22.40;78.80;;;;;;5038273;28;20388;-74
2022/06/23 09:32:19;;;;;;;;;;;22.50;78.70;;;;;;5034652;28;19933;-77
2022/06/23 09:34:53;;;;;;;;;;;22.50;78.60;;;;;;5039268;28;20507;-77
2022/06/23 09:37:30;;;;;;;;;;;22.60;78.50;;;;;;5036835;28;20381;-74
2022/06/23 09:40:05;;;;;;;;;;;22.70;78.30;;;;;;5031733;28;19968;-74
2022/06/23 09:42:50;;;;;;;;;;;22.70;78.10;;;;;;5028320;28;19936;-75
2022/06/23 09:45:28;;;;;;;;;;;22.80;77.90;;;;;;5009894;28;19932;-74
2022/06/23 09:48:07;;;;;;;;;;;22.80;77.80;;;;;;5033201;28;19935;-74
2022/06/23 09:50:48;;;;;;;;;;;22.90;77.80;;;;;;5034442;28;19932;-74
2022/06/23 09:53:32;;;;;;;;;;;23.00;77.00;;;;;;5032648;28;20349;-75
2022/06/23 09:56:06;;;;;;;;;;;23.00;77.50;;;;;;5016983;28;19936;-74
2022/06/23 09:58:42;;;;;;;;;;;23.10;77.40;;;;;;5029809;28;19928;-76
2022/06/23 10:01:18;;;;;;;;;;;23.20;76.50;;;;;;5031036;28;19933;-74
2022/06/23 10:03:53;;;;;;;;;;;23.20;77.00;;;;;;5030229;28;19932;-75
2022/06/23 10:06:35;;;;;;;;;;;23.30;76.70;;;;;;5029881;28;19932;-75
2022/06/23 10:09:04;;;;;;;;;;;23.30;75.50;;;;;;5029919;28;19936;-75
2022/06/23 10:11:55;;;;;;;;;;;23.40;76.20;;;;;;5032786;28;19933;-74
2022/06/23 10:14:35;;;;;;;;;;;23.40;75.70;;;;;;5019298;28;19940;-74
2022/06/23 10:17:19;;;;;;;;;;;23.50;75.10;;;;;;5041593;28;20351;-74
2022/06/23 10:20:02;;;;;;;;;;;23.50;74.90;;;;;;5041853;28;19940;-74
2022/06/23 10:22:35;;;;;;;;;;;23.70;74.90;;;;;;5034426;28;19929;-74
2022/06/23 10:25:07;;;;;;;;;;;23.80;74.40;;;;;;5040010;28;19940;-74
2022/06/23 10:27:42;;;;;;;;;;;23.80;74.10;;;;;;5042299;28;20420;-75
2022/06/23 10:30:14;;;;;;;;;;;23.90;73.80;;;;;;5041488;28;19940;-75
2022/06/23 10:32:51;;;;;;;;;;;24.00;73.50;;;;;;5039296;28;19936;-74
2022/06/23 10:35:26;;;;;;;;;;;24.10;73.40;;;;;;5039715;28;19940;-74
2022/06/23 10:38:02;;;;;;;;;;;24.20;73.10;;;;;;5042208;28;20718;-75
2022/06/23 10:40:53;;;;;;;;;;;24.20;72.70;;;;;;5041604;28;20417;-75
2022/06/23 10:43:38;;;;;;;;;;;24.30;72.40;;;;;;5020585;28;19940;-76
2022/06/23 10:46:13;;;;;;;;;;;24.30;72.10;;;;;;5041916;28;19933;-74
2022/06/23 10:48:49;;;;;;;;;;;24.40;71.80;;;;;;5031875;28;20004;-75
2022/06/23 10:51:28;;;;;;;;;;;24.50;71.40;;;;;;5043914;28;19933;-74
2022/06/23 10:54:09;;;;;;;;;;;24.60;71.10;;;;;;5040906;28;20178;-74
2022/06/23 10:56:43;;;;;;;;;;;24.70;70.30;;;;;;5026746;28;19932;-75
2022/06/23 10:59:24;;;;;;;;;;;24.80;70.00;;;;;;5045483;28;20328;-75
2022/06/23 11:02:03;;;;;;;;;;;24.80;70.00;;;;;;5037971;28;19928;-77
2022/06/23 11:04:42;;;;;;;;;;;24.90;69.80;;;;;;5047747;28;19936;-74
2022/06/23 11:07:18;;;;;;;;;;;25.00;69.60;;;;;;5041494;28;19929;-76
2022/06/23 11:09:49;;;;;;;;;;;25.10;69.40;;;;;;5040135;28;19928;-75
2022/06/23 11:12:25;;;;;;;;;;;25.20;69.00;;;;;;5040460;28;20400;-76
2022/06/23 11:14:58;;;;;;;;;;;25.20;68.40;;;;;;5039561;28;19929;-77
2022/06/23 11:17:29;;;;;;;;;;;25.30;68.10;;;;;;5043212;28;20363;-75
2022/06/23 11:20:03;;;;;;;;;;;25.30;67.90;;;;;;5042066;28;20693;-75
2022/06/23 11:22:36;;;;;;;;;;;25.40;67.70;;;;;;5044082;28;19929;-76
2022/06/23 11:25:09;;;;;;;;;;;25.50;67.30;;;;;;5041593;28;19932;-75
2022/06/23 11:27:41;;;;;;;;;;;25.60;67.20;;;;;;5035150;28;19933;-75
2022/06/23 11:30:10;;;;;;;;;;;25.60;67.00;;;;;;5039878;28;19933;-76
2022/06/23 11:32:43;;;;;;;;;;;25.70;66.50;;;;;;5039934;28;19929;-75
2022/06/23 11:35:25;;;;;;;;;;;25.80;66.40;;;;;;5040246;28;19928;-74
2022/06/23 11:38:00;;;;;;;;;;;25.90;66.30;;;;;;5033777;28;19932;-75
2022/06/23 11:40:38;;;;;;;;;;;25.90;66.00;;;;;;5035232;28;21362;-74
2022/06/23 11:43:13;;;;;;;;;;;26.00;65.90;;;;;;5041911;28;19933;-75
2022/06/23 11:45:46;;;;;;;;;;;26.10;65.70;;;;;;5038681;28;20023;-73
2022/06/23 11:48:22;;;;;;;;;;;26.20;65.60;;;;;;5042235;28;19928;-73
2022/06/23 11:50:52;;;;;;;;;;;26.20;65.00;;;;;;5041994;28;19935;-76
2022/06/23 11:53:31;;;;;;;;;;;26.30;64.70;;;;;;5040869;28;20656;-76
2022/06/23 11:55:59;;;;;;;;;;;26.40;64.60;;;;;;5041432;28;19929;-75
2022/06/23 11:58:38;;;;;;;;;;;26.40;64.50;;;;;;5043542;28;19928;-75
2022/06/23 12:01:14;;;;;;;;;;;26.50;64.30;;;;;;5039341;28;20205;-75
2022/06/23 12:03:47;;;;;;;;;;;26.60;64.20;;;;;;5039853;28;20032;-75
2022/06/23 12:06:17;;;;;;;;;;;26.60;64.00;;;;;;5040776;28;19997;-75
2022/06/23 12:08:54;;;;;;;;;;;26.70;63.80;;;;;;5034571;28;19933;-73
2022/06/23 12:11:21;;;;;;;;;;;26.80;63.60;;;;;;5032039;28;19929;-76
2022/06/23 12:13:48;;;;;;;;;;;26.80;63.30;;;;;;5041752;28;19932;-70
2022/06/23 12:16:14;;;;;;;;;;;26.90;62.90;;;;;;5037776;28;19960;-71
2022/06/23 12:18:43;;;;;;;;;;;27.00;62.90;;;;;;5040268;28;20564;-67
2022/06/23 12:21:15;;;;;;;;;;;27.10;62.70;;;;;;5041438;28;19929;-69
2022/06/23 12:23:46;;;;;;;;;;;27.10;62.40;;;;;;5039418;28;19936;-67
2022/06/23 12:26:17;;;;;;;;;;;27.20;62.40;;;;;;5033824;28;19951;-71
2022/06/23 12:28:47;;;;;;;;;;;27.20;62.20;;;;;;5042211;28;19932;-69
2022/06/23 12:31:21;;;;;;;;;;;27.30;62.00;;;;;;5038416;28;19975;-69
2022/06/23 12:33:51;;;;;;;;;;;27.40;61.80;;;;;;5042217;28;20638;-68
2022/06/23 12:36:24;;;;;;;;;;;27.40;61.40;;;;;;5038953;28;19939;-68
2022/06/23 12:38:53;;;;;;;;;;;27.50;61.40;;;;;;5042249;28;20670;-72
2022/06/23 12:41:23;;;;;;;;;;;27.50;61.00;;;;;;5040854;28;19941;-70
2022/06/23 12:43:54;;;;;;;;;;;27.60;60.80;;;;;;5041898;28;19936;-72
2022/06/23 12:46:25;;;;;;;;;;;27.70;60.50;;;;;;5040738;28;19932;-71
2022/06/23 12:49:04;;;;;;;;;;;27.70;60.50;;;;;;5041670;28;20028;-72
2022/06/23 12:51:39;;;;;;;;;;;27.80;60.60;;;;;;5041835;28;19990;-68
2022/06/23 12:54:14;;;;;;;;;;;27.80;60.40;;;;;;5039489;28;20628;-70
2022/06/23 12:56:58;;;;;;;;;;;27.90;60.30;;;;;;5041256;28;19929;-68
2022/06/23 12:59:28;;;;;;;;;;;27.90;60.10;;;;;;5044425;28;19928;-70
2022/06/23 13:01:56;;;;;;;;;;;28.00;59.80;;;;;;5038337;28;21153;-70
2022/06/23 13:04:26;;;;;;;;;;;28.10;59.50;;;;;;5041991;28;19929;-71
2022/06/23 13:06:54;;;;;;;;;;;28.10;59.40;;;;;;5040006;28;19936;-70
2022/06/23 13:09:25;;;;;;;;;;;28.20;59.20;;;;;;5041194;28;19956;-72
2022/06/23 13:11:58;;;;;;;;;;;28.20;59.00;;;;;;5034495;28;19927;-71
2022/06/23 13:14:28;;;;;;;;;;;28.30;59.10;;;;;;5039066;28;20708;-68
2022/06/23 13:16:58;;;;;;;;;;;28.40;58.80;;;;;;5040853;28;19936;-69
2022/06/23 13:19:30;;;;;;;;;;;28.40;58.70;;;;;;5034145;28;19928;-73
2022/06/23 13:22:02;;;;;;;;;;;28.40;58.60;;;;;;5039700;28;19936;-74
2022/06/23 13:24:33;;;;;;;;;;;28.50;58.40;;;;;;5035776;28;20669;-75
2022/06/23 13:27:06;;;;;;;;;;;28.50;58.20;;;;;;5040875;28;19964;-76
2022/06/23 13:29:36;;;;;;;;;;;28.60;58.00;;;;;;5040850;28;19937;-74
2022/06/23 13:32:09;;;;;;;;;;;28.70;58.00;;;;;;5035327;28;20328;-75
2022/06/23 13:34:37;;;;;;;;;;;28.70;57.90;;;;;;5036471;28;19932;-74
2022/06/23 13:37:08;;;;;;;;;;;28.80;57.70;;;;;;5034601;28;19929;-74
2022/06/23 13:39:36;;;;;;;;;;;28.90;57.70;;;;;;5033322;28;19929;-75
2022/06/23 13:42:07;;;;;;;;;;;28.90;57.60;;;;;;5033964;28;19933;-74
2022/06/23 13:44:40;;;;;;;;;;;29.00;57.30;;;;;;5031105;28;19928;-75
2022/06/23 13:47:09;;;;;;;;;;;29.00;56.90;;;;;;5034882;28;19939;-76
2022/06/23 13:49:38;;;;;;;;;;;29.10;56.90;;;;;;5034832;28;19944;-75
2022/06/23 13:52:09;;;;;;;;;;;29.20;56.90;;;;;;5033344;28;19935;-74
2022/06/23 13:54:39;;;;;;;;;;;29.20;56.70;;;;;;5035045;28;19940;-73
2022/06/23 13:57:17;;;;;;;;;;;29.30;56.40;;;;;;5033212;28;19933;-75
2022/06/23 13:59:48;;;;;;;;;;;29.30;56.20;;;;;;5038890;28;20554;-73
2022/06/23 14:02:17;;;;;;;;;;;29.40;56.00;;;;;;5036600;28;19936;-73
2022/06/23 14:04:46;;;;;;;;;;;29.40;55.70;;;;;;5035010;28;19941;-73
2022/06/23 14:07:15;;;;;;;;;;;29.50;55.70;;;;;;5034745;28;19936;-75
2022/06/23 14:09:44;;;;;;;;;;;29.50;55.70;;;;;;5037548;28;20272;-73
2022/06/23 14:12:16;;;;;;;;;;;29.60;55.40;;;;;;5033566;28;19935;-74
2022/06/23 14:14:46;;;;;;;;;;;29.60;55.40;;;;;;5037526;28;19956;-74
2022/06/23 14:17:16;;;;;;;;;;;29.70;55.40;;;;;;5042389;28;20388;-74
2022/06/23 14:19:47;;;;;;;;;;;29.80;54.90;;;;;;5035857;28;19929;-74
2022/06/23 14:22:17;;;;;;;;;;;29.80;54.90;;;;;;5036685;28;19928;-74
2022/06/23 14:24:46;;;;;;;;;;;29.90;54.30;;;;;;5037454;28;19963;-74
2022/06/23 14:27:18;;;;;;;;;;;30.00;53.60;;;;;;5035188;28;19940;-73
2022/06/23 14:29:48;;;;;;;;;;;30.10;53.20;;;;;;5038308;28;19924;-73
2022/06/23 14:32:17;;;;;;;;;;;30.10;52.80;;;;;;5035676;28;19929;-74
2022/06/23 14:34:47;;;;;;;;;;;30.20;53.10;;;;;;5038704;28;19936;-73
2022/06/23 14:37:15;;;;;;;;;;;30.30;52.90;;;;;;5035259;28;20008;-74
2022/06/23 14:39:43;;;;;;;;;;;30.30;53.00;;;;;;5033066;28;19928;-74
2022/06/23 14:42:16;;;;;;;;;;;30.40;52.80;;;;;;5030844;28;19933;-74
2022/06/23 14:45:01;;;;;;;;;;;30.50;52.50;;;;;;5037358;28;19924;-74
2022/06/23 14:47:33;;;;;;;;;;;30.60;52.10;;;;;;5036680;28;20271;-75
2022/06/23 14:50:11;;;;;;;;;;;30.60;52.50;;;;;;5038426;28;19925;-74
2022/06/23 14:52:42;;;;;;;;;;;30.70;52.40;;;;;;5038197;28;19929;-74
2022/06/23 14:55:15;;;;;;;;;;;30.80;52.30;;;;;;5028626;28;20544;-75